Time,TemperatureF,DewpointF,PressureIn,WindDirection,WindDirectionDegrees,WindSpeedMPH,WindSpeedGustMPH,Humidity,HourlyPrecipIn,Conditions,Clouds,dailyrainin,SoftwareType,DateUTC
2013-01-14 00:05:00,48.3,48.0,30.02,SSE,150,0.0,1.0,100,0.00,,,0.00,weatherlink.com 1.10,2013-01-14 05:05:00,
2013-01-14 00:20:00,47.9,48.0,30.02,SSW,210,1.0,3.0,100,0.00,,,0.00,weatherlink.com 1.10,2013-01-14 05:20:00,
2013-01-14 00:35:00,47.6,48.0,30.02,SSW,194,1.0,2.0,100,0.00,,,0.00,weatherlink.com 1.10,2013-01-14 05:35:00,
2013-01-14 00:50:00,47.6,48.0,30.02,WSW,239,0.0,2.0,100,0.00,,,0.00,weatherlink.com 1.10,2013-01-14 05:50:00,
2013-01-14 01:05:00,47.4,47.0,30.02,SE,139,1.0,2.0,100,0.00,,,0.00,weatherlink.com 1.10,2013-01-14 06:05:00,
2013-01-14 01:20:00,47.3,47.0,30.02,SE,145,0.0,2.0,100,0.00,,,0.00,weatherlink.com 1.10,2013-01-14 06:20:00,
2013-01-14 01:35:00,47.2,47.0,30.02,SSW,203,0.0,2.0,100,0.00,,,0.00,weatherlink.com 1.10,2013-01-14 06:35:00,
2013-01-14 01:50:00,47.0,47.0,30.02,SSE,155,0.0,2.0,100,0.00,,,0.00,weatherlink.com 1.10,2013-01-14 06:50:00,
2013-01-14 02:05:00,47.2,47.0,30.02,SSE,157,1.0,2.0,100,0.00,,,0.00,weatherlink.com 1.10,2013-01-14 07:05:00,
2013-01-14 02:20:00,47.6,48.0,30.02,SW,217,2.0,3.0,100,0.01,,,0.01,weatherlink.com 1.10,2013-01-14 07:20:00,
2013-01-14 02:35:00,48.1,48.0,30.02,SW,228,0.0,3.0,100,0.01,,,0.01,weatherlink.com 1.10,2013-01-14 07:35:00,
2013-01-14 02:50:00,48.5,49.0,30.02,SSW,211,2.0,3.0,100,0.01,,,0.01,weatherlink.com 1.10,2013-01-14 07:50:00,
2013-01-14 03:05:00,48.6,49.0,30.01,SSW,198,1.0,3.0,100,0.01,,,0.01,weatherlink.com 1.10,2013-01-14 08:05:00,
2013-01-14 03:20:00,48.3,48.0,30.01,SSW,194,1.0,2.0,100,0.00,,,0.01,weatherlink.com 1.10,2013-01-14 08:20:00,
2013-01-14 03:35:00,47.7,48.0,30.00,SSW,200,2.0,3.0,100,0.00,,,0.01,weatherlink.com 1.10,2013-01-14 08:35:00,
2013-01-14 03:50:00,47.7,48.0,30.00,SSE,155,1.0,3.0,100,0.00,,,0.01,weatherlink.com 1.10,2013-01-14 08:50:00,
2013-01-14 04:05:00,48.2,48.0,30.00,SW,215,0.0,4.0,100,0.00,,,0.01,weatherlink.com 1.10,2013-01-14 09:05:00,
2013-01-14 04:20:00,49.0,49.0,29.99,SSW,210,0.0,3.0,100,0.00,,,0.01,weatherlink.com 1.10,2013-01-14 09:20:00,
2013-01-14 04:35:00,50.3,50.0,29.98,SSW,210,1.0,4.0,100,0.00,,,0.01,weatherlink.com 1.10,2013-01-14 09:35:00,
2013-01-14 04:50:00,51.0,51.0,29.98,SSW,202,2.0,5.0,100,0.00,,,0.01,weatherlink.com 1.10,2013-01-14 09:50:00,
2013-01-14 05:05:00,51.8,52.0,29.98,SW,215,1.0,4.0,100,0.00,,,0.01,weatherlink.com 1.10,2013-01-14 10:05:00,
2013-01-14 05:20:00,52.2,52.0,29.98,SE,134,0.0,3.0,100,0.00,,,0.01,weatherlink.com 1.10,2013-01-14 10:20:00,
2013-01-14 05:35:00,51.7,52.0,29.98,SSW,205,1.0,3.0,100,0.00,,,0.01,weatherlink.com 1.10,2013-01-14 10:35:00,
2013-01-14 05:50:00,51.3,51.0,29.99,SSW,202,1.0,4.0,100,0.00,,,0.01,weatherlink.com 1.10,2013-01-14 10:50:00,
2013-01-14 06:05:00,50.5,51.0,29.99,SSE,168,0.0,3.0,100,0.00,,,0.01,weatherlink.com 1.10,2013-01-14 11:05:00,
2013-01-14 06:20:00,49.8,50.0,29.98,SE,138,2.0,3.0,100,0.00,,,0.01,weatherlink.com 1.10,2013-01-14 11:20:00,
2013-01-14 06:35:00,49.5,50.0,30.00,SSW,203,2.0,3.0,100,0.00,,,0.01,weatherlink.com 1.10,2013-01-14 11:35:00,
2013-01-14 06:50:00,50.1,50.0,30.01,SSW,205,0.0,1.0,100,0.00,,,0.01,weatherlink.com 1.10,2013-01-14 11:50:00,
2013-01-14 07:05:00,50.3,50.0,30.01,SSE,163,1.0,1.0,100,0.00,,,0.01,weatherlink.com 1.10,2013-01-14 12:05:00,
2013-01-14 07:20:00,50.1,50.0,30.02,WSW,246,1.0,2.0,100,0.00,,,0.01,weatherlink.com 1.10,2013-01-14 12:20:00,
2013-01-14 07:35:00,50.4,50.0,30.03,WSW,238,0.0,1.0,100,0.00,,,0.01,weatherlink.com 1.10,2013-01-14 12:35:00,
2013-01-14 07:50:00,51.3,51.0,30.03,West,276,0.0,1.0,100,0.00,,,0.01,weatherlink.com 1.10,2013-01-14 12:50:00,
2013-01-14 08:05:00,54.5,55.0,30.03,West,261,1.0,2.0,100,0.00,,,0.01,weatherlink.com 1.10,2013-01-14 13:05:00,
2013-01-14 08:21:00,57.1,57.0,30.04,West,262,0.0,2.0,100,0.00,,,0.01,weatherlink.com 1.10,2013-01-14 13:21:00,
2013-01-14 08:36:00,57.3,57.0,30.05,NE,53,0.0,1.0,100,0.00,,,0.01,weatherlink.com 1.10,2013-01-14 13:36:00,
2013-01-14 08:51:00,57.2,57.0,30.06,NE,53,0.0,1.0,100,0.00,,,0.01,weatherlink.com 1.10,2013-01-14 13:51:00,
2013-01-14 09:06:00,57.3,57.0,30.07,NE,53,0.0,0.0,100,0.00,,,0.01,weatherlink.com 1.10,2013-01-14 14:06:00,
2013-01-14 09:21:00,57.4,57.0,30.07,West,269,0.0,1.0,100,0.00,,,0.01,weatherlink.com 1.10,2013-01-14 14:21:00,
2013-01-14 09:36:00,57.7,58.0,30.08,West,271,0.0,1.0,100,0.00,,,0.01,weatherlink.com 1.10,2013-01-14 14:36:00,
2013-01-14 09:51:00,58.0,58.0,30.09,West,270,0.0,1.0,100,0.00,,,0.01,weatherlink.com 1.10,2013-01-14 14:51:00,
2013-01-14 10:06:00,58.3,58.0,30.09,NW,309,0.0,1.0,100,0.00,,,0.01,weatherlink.com 1.10,2013-01-14 15:06:00,
2013-01-14 10:21:00,58.6,59.0,30.09,NW,309,0.0,1.0,100,0.00,,,0.01,weatherlink.com 1.10,2013-01-14 15:21:00,
2013-01-14 10:36:00,59.4,59.0,30.09,NW,309,0.0,1.0,100,0.00,,,0.01,weatherlink.com 1.10,2013-01-14 15:36:00,
2013-01-14 10:51:00,58.5,59.0,30.09,NW,314,0.0,2.0,100,0.00,,,0.01,weatherlink.com 1.10,2013-01-14 15:51:00,
2013-01-14 11:06:00,57.3,57.0,30.09,NW,314,0.0,0.0,100,0.00,,,0.01,weatherlink.com 1.10,2013-01-14 16:06:00,
2013-01-14 11:21:00,56.8,57.0,30.08,NW,322,0.0,1.0,100,0.00,,,0.01,weatherlink.com 1.10,2013-01-14 16:21:00,
2013-01-14 11:36:00,57.0,57.0,30.09,NW,322,0.0,0.0,100,0.00,,,0.01,weatherlink.com 1.10,2013-01-14 16:36:00,
2013-01-14 11:51:00,57.4,57.0,30.09,NW,322,0.0,0.0,100,0.00,,,0.01,weatherlink.com 1.10,2013-01-14 16:51:00,
2013-01-14 12:06:00,57.4,57.0,30.09,NW,322,0.0,0.0,100,0.00,,,0.01,weatherlink.com 1.10,2013-01-14 17:06:00,
2013-01-14 12:21:00,57.2,57.0,30.08,NW,322,0.0,0.0,100,0.00,,,0.01,weatherlink.com 1.10,2013-01-14 17:21:00,
2013-01-14 12:36:00,57.4,57.0,30.08,NW,322,0.0,1.0,100,0.00,,,0.01,weatherlink.com 1.10,2013-01-14 17:36:00,
2013-01-14 12:51:00,57.6,58.0,30.08,NW,320,0.0,1.0,100,0.00,,,0.01,weatherlink.com 1.10,2013-01-14 17:51:00,
2013-01-14 13:06:00,57.2,57.0,30.11,NW,320,0.0,1.0,100,0.00,,,0.01,weatherlink.com 1.10,2013-01-14 18:06:00,
2013-01-14 13:21:00,56.4,56.0,30.11,NW,320,0.0,0.0,99,0.00,,,0.01,weatherlink.com 1.10,2013-01-14 18:21:00,
2013-01-14 13:36:00,56.3,56.0,30.10,NW,321,0.0,1.0,99,0.00,,,0.01,weatherlink.com 1.10,2013-01-14 18:36:00,
2013-01-14 13:51:00,56.3,56.0,30.10,NW,320,0.0,0.0,98,0.00,,,0.01,weatherlink.com 1.10,2013-01-14 18:51:00,
2013-01-14 14:06:00,56.6,56.0,30.11,NW,320,0.0,1.0,97,0.00,,,0.01,weatherlink.com 1.10,2013-01-14 19:06:00,
2013-01-14 14:21:00,56.5,55.0,30.12,NW,321,0.0,1.0,95,0.00,,,0.01,weatherlink.com 1.10,2013-01-14 19:21:00,
2013-01-14 14:36:00,56.5,54.0,30.13,NNW,327,0.0,0.0,92,0.00,,,0.01,weatherlink.com 1.10,2013-01-14 19:36:00,
2013-01-14 14:51:00,56.3,54.0,30.13,NNW,327,0.0,1.0,91,0.00,,,0.01,weatherlink.com 1.10,2013-01-14 19:51:00,
2013-01-14 15:08:00,56.0,54.0,30.11,East,92,0.0,0.0,91,0.00,,,0.01,weatherlink.com 1.10,2013-01-14 20:08:00,
2013-01-14 15:21:00,55.9,54.0,30.12,East,92,0.0,0.0,92,0.00,,,0.01,weatherlink.com 1.10,2013-01-14 20:21:00,
2013-01-14 15:36:00,55.4,53.0,30.11,North,356,0.0,1.0,91,0.00,,,0.01,weatherlink.com 1.10,2013-01-14 20:36:00,
2013-01-14 15:51:00,55.1,53.0,30.15,North,356,0.0,0.0,91,0.00,,,0.01,weatherlink.com 1.10,2013-01-14 20:51:00,
2013-01-14 16:06:00,54.3,52.0,30.14,North,356,0.0,0.0,91,0.00,,,0.01,weatherlink.com 1.10,2013-01-14 21:06:00,
2013-01-14 16:21:00,53.7,51.0,30.13,North,355,0.0,0.0,89,0.00,,,0.01,weatherlink.com 1.10,2013-01-14 21:21:00,
2013-01-14 16:36:00,53.3,51.0,30.14,South,169,0.0,1.0,90,0.00,,,0.01,weatherlink.com 1.10,2013-01-14 21:36:00,
2013-01-14 16:51:00,53.0,51.0,30.15,South,169,0.0,0.0,91,0.00,,,0.01,weatherlink.com 1.10,2013-01-14 21:51:00,
2013-01-14 17:06:00,52.7,50.0,30.16,South,169,0.0,0.0,91,0.00,,,0.01,weatherlink.com 1.10,2013-01-14 22:06:00,
2013-01-14 17:21:00,52.3,50.0,30.18,South,169,0.0,0.0,90,0.00,,,0.01,weatherlink.com 1.10,2013-01-14 22:21:00,
2013-01-14 17:36:00,52.2,50.0,30.17,South,169,0.0,1.0,91,0.00,,,0.01,weatherlink.com 1.10,2013-01-14 22:36:00,
2013-01-14 17:51:00,52.2,50.0,30.17,South,169,0.0,0.0,91,0.00,,,0.01,weatherlink.com 1.10,2013-01-14 22:51:00,
2013-01-14 18:06:00,52.2,50.0,30.16,South,169,0.0,0.0,91,0.00,,,0.01,weatherlink.com 1.10,2013-01-14 23:06:00,
2013-01-14 18:21:00,52.1,50.0,30.17,South,169,0.0,0.0,91,0.00,,,0.01,weatherlink.com 1.10,2013-01-14 23:21:00,
2013-01-14 18:36:00,51.8,49.0,30.18,South,169,0.0,0.0,91,0.00,,,0.01,weatherlink.com 1.10,2013-01-14 23:36:00,
2013-01-14 18:51:00,51.7,49.0,30.18,SE,146,0.0,0.0,91,0.00,,,0.01,weatherlink.com 1.10,2013-01-14 23:51:00,
2013-01-14 19:06:00,51.6,49.0,30.17,SE,145,0.0,0.0,92,0.00,,,0.01,weatherlink.com 1.10,2013-01-15 00:06:00,
2013-01-14 19:22:00,51.4,49.0,30.18,SE,146,0.0,0.0,92,0.00,,,0.01,weatherlink.com 1.10,2013-01-15 00:22:00,
2013-01-14 19:37:00,51.2,49.0,30.18,SE,145,0.0,0.0,93,0.00,,,0.01,weatherlink.com 1.10,2013-01-15 00:37:00,
2013-01-14 19:52:00,50.9,49.0,30.20,SE,145,0.0,1.0,92,0.00,,,0.01,weatherlink.com 1.10,2013-01-15 00:52:00,
2013-01-14 20:07:00,50.6,48.0,30.21,SE,145,0.0,0.0,91,0.00,,,0.01,weatherlink.com 1.10,2013-01-15 01:07:00,
2013-01-14 20:23:00,50.3,48.0,30.22,SE,145,0.0,1.0,90,0.00,,,0.01,weatherlink.com 1.10,2013-01-15 01:23:00,
2013-01-14 20:37:00,50.1,47.0,30.21,SE,145,0.0,1.0,89,0.00,,,0.01,weatherlink.com 1.10,2013-01-15 01:37:00,
2013-01-14 20:52:00,49.7,47.0,30.20,NE,46,0.0,1.0,89,0.00,,,0.01,weatherlink.com 1.10,2013-01-15 01:52:00,
2013-01-14 21:07:00,49.5,47.0,30.21,NNW,336,0.0,2.0,90,0.00,,,0.01,weatherlink.com 1.10,2013-01-15 02:07:00,
2013-01-14 21:22:00,48.7,47.0,30.21,NNW,330,0.0,1.0,92,0.01,,,0.02,weatherlink.com 1.10,2013-01-15 02:22:00,
2013-01-14 21:37:00,47.8,47.0,30.22,NNW,330,0.0,1.0,95,0.02,,,0.03,weatherlink.com 1.10,2013-01-15 02:37:00,
2013-01-14 21:52:00,47.3,46.0,30.23,NNE,25,1.0,1.0,96,0.02,,,0.03,weatherlink.com 1.10,2013-01-15 02:52:00,
2013-01-14 22:07:00,47.1,46.0,30.22,NE,44,0.0,1.0,96,0.03,,,0.04,weatherlink.com 1.10,2013-01-15 03:07:00,
2013-01-14 22:22:00,47.1,46.0,30.23,NNE,13,0.0,1.0,97,0.02,,,0.04,weatherlink.com 1.10,2013-01-15 03:22:00,
2013-01-14 22:37:00,46.9,46.0,30.23,ENE,65,5.0,5.0,96,0.01,,,0.04,weatherlink.com 1.10,2013-01-15 03:37:00,
2013-01-14 22:52:00,46.7,45.0,30.23,WNW,298,1.0,7.0,92,0.01,,,0.04,weatherlink.com 1.10,2013-01-15 03:52:00,
2013-01-14 23:08:00,46.4,43.0,30.23,NNE,22,2.0,7.0,88,0.00,,,0.04,weatherlink.com 1.10,2013-01-15 04:08:00,
2013-01-14 23:22:00,45.7,42.0,30.22,East,97,2.0,5.0,88,0.01,,,0.05,weatherlink.com 1.10,2013-01-15 04:22:00,
2013-01-14 23:37:00,44.5,41.0,30.24,NE,36,10.0,10.0,88,0.02,,,0.06,weatherlink.com 1.10,2013-01-15 04:37:00,
2013-01-14 23:52:00,43.9,41.0,30.24,NNW,333,0.0,13.0,89,0.03,,,0.07,weatherlink.com 1.10,2013-01-15 04:52:00,